createdAt,value
2023-05-13T00:01:58.066Z,98822.63
2023-05-13T00:04:44.575Z,98829.84
2023-05-13T00:07:37.500Z,98823.34
2023-05-13T00:10:32.120Z,98827.22
2023-05-13T00:12:59.020Z,98837.69
2023-05-13T00:15:26.317Z,98827.59
2023-05-13T00:17:53.256Z,98838.41
2023-05-13T00:20:20.573Z,98829.56
2023-05-13T00:22:47.644Z,98831.22
2023-05-13T00:25:14.674Z,98830.47
2023-05-13T00:27:41.625Z,98829.19
2023-05-13T00:30:09.595Z,98832.84
2023-05-13T00:32:36.605Z,98826.53
2023-05-13T00:35:04.168Z,98828.03
2023-05-13T00:37:31.098Z,98836.22
2023-05-13T00:39:58.027Z,98814.56
2023-05-13T00:42:24.942Z,98837.44
2023-05-13T00:44:52.353Z,98838.00
2023-05-13T00:47:19.379Z,98836.13
2023-05-13T00:49:46.412Z,98841.06
2023-05-13T00:52:13.542Z,98829.25
2023-05-13T00:54:40.606Z,98844.00
2023-05-13T00:57:07.632Z,98839.06
2023-05-13T00:59:34.570Z,98844.09
2023-05-13T01:02:27.989Z,98848.09
2023-05-13T01:04:59.539Z,98848.09
2023-05-13T01:08:06.415Z,98846.59
2023-05-13T01:11:04.493Z,98845.47
2023-05-13T01:13:58.707Z,98850.41
2023-05-13T01:17:12.463Z,98850.94
2023-05-13T01:19:44.336Z,98847.19
2023-05-13T01:22:11.407Z,98845.34
2023-05-13T01:24:38.672Z,98848.03
2023-05-13T01:27:06.532Z,98844.88
2023-05-13T01:29:33.837Z,98847.66
2023-05-13T01:32:02.056Z,98848.66
2023-05-13T01:34:30.119Z,98848.03
2023-05-13T01:36:58.177Z,98843.66
2023-05-13T01:39:25.877Z,98842.25
2023-05-13T01:41:52.858Z,98843.94
2023-05-13T01:44:19.892Z,98851.03
2023-05-13T01:46:48.052Z,98855.38
2023-05-13T01:49:15.063Z,98857.03
2023-05-13T01:51:41.937Z,98848.31
2023-05-13T01:54:09.194Z,98850.06
2023-05-13T01:56:36.296Z,98845.34
2023-05-13T01:59:03.263Z,98845.50
2023-05-13T02:01:30.270Z,98848.88
2023-05-13T02:04:00.316Z,98851.72
2023-05-13T02:06:28.294Z,98857.84
2023-05-13T02:08:55.240Z,98859.00
2023-05-13T02:11:22.709Z,98860.56
2023-05-13T02:13:49.682Z,98856.72
2023-05-13T02:16:18.289Z,98861.25
2023-05-13T02:18:45.301Z,98858.94
2023-05-13T02:21:12.253Z,98865.72
2023-05-13T02:23:39.195Z,98859.84
2023-05-13T02:26:06.164Z,98859.00
2023-05-13T02:28:33.131Z,98852.84
2023-05-13T02:31:00.191Z,98865.81
2023-05-13T02:33:27.448Z,98791.41
2023-05-13T02:35:54.470Z,98850.59
2023-05-13T02:38:21.472Z,98868.38
2023-05-13T02:40:48.511Z,98871.75
2023-05-13T02:43:15.411Z,98881.69
2023-05-13T02:45:42.412Z,98880.91
2023-05-13T02:48:11.159Z,98865.00
2023-05-13T02:50:38.245Z,98881.78
2023-05-13T02:53:05.208Z,98880.47
2023-05-13T02:55:32.191Z,98880.28
2023-05-13T02:57:59.201Z,98884.16
2023-05-13T03:00:26.233Z,98886.84
2023-05-13T03:02:53.295Z,98895.09
2023-05-13T03:05:20.291Z,98880.13
2023-05-13T03:07:47.293Z,98892.91
2023-05-13T03:10:14.440Z,98863.88
2023-05-13T03:12:41.574Z,98897.09
2023-05-13T03:15:09.163Z,98893.50
2023-05-13T03:17:36.062Z,98890.81
2023-05-13T03:20:03.324Z,98897.50
2023-05-13T03:22:30.249Z,98891.97
2023-05-13T03:24:58.543Z,98895.81
2023-05-13T03:27:25.674Z,98891.75
2023-05-13T03:29:52.571Z,98905.06
2023-05-13T03:32:19.599Z,98902.16
2023-05-13T03:34:46.578Z,98899.66
2023-05-13T03:37:13.488Z,98904.53
2023-05-13T03:39:40.376Z,98912.25
2023-05-13T03:42:07.564Z,98910.50
2023-05-13T03:44:35.521Z,98916.88
2023-05-13T03:47:02.524Z,98921.06
2023-05-13T03:49:29.434Z,98916.44
2023-05-13T03:51:56.362Z,98926.59
2023-05-13T03:54:24.538Z,98867.94
2023-05-13T03:56:51.481Z,98923.03
2023-05-13T03:59:18.441Z,98925.31
2023-05-13T04:01:45.373Z,98939.38
2023-05-13T04:04:12.303Z,98932.31
2023-05-13T04:06:39.262Z,98938.41
2023-05-13T04:09:06.315Z,98938.13
2023-05-13T04:11:33.389Z,98932.78
2023-05-13T04:14:00.318Z,98937.34
2023-05-13T04:16:28.047Z,98940.72
2023-05-13T04:18:55.197Z,98934.19
2023-05-13T04:21:22.227Z,98939.13
2023-05-13T04:23:49.183Z,98940.44
2023-05-13T04:26:16.067Z,98945.84
2023-05-13T04:28:43.018Z,98946.13
2023-05-13T04:31:10.659Z,98946.81
2023-05-13T04:33:37.582Z,98945.25
2023-05-13T04:36:04.774Z,98937.94
2023-05-13T04:38:32.221Z,98939.03
2023-05-13T04:40:59.124Z,98962.50
2023-05-13T04:43:26.214Z,98956.38
2023-05-13T04:45:53.239Z,98950.88
2023-05-13T04:48:20.209Z,98950.63
2023-05-13T04:50:47.933Z,98952.50
2023-05-13T04:53:16.153Z,98924.56
2023-05-13T04:55:44.285Z,98963.28
2023-05-13T04:58:11.239Z,98957.56
2023-05-13T05:00:38.132Z,98971.63
2023-05-13T05:03:05.173Z,98963.34
2023-05-13T05:05:32.172Z,98967.34
2023-05-13T05:07:59.108Z,98956.00
2023-05-13T05:10:26.197Z,98959.38
2023-05-13T05:12:53.142Z,98950.97
2023-05-13T05:15:20.537Z,98952.56
2023-05-13T05:17:47.512Z,98956.38
2023-05-13T05:20:14.661Z,98952.41
2023-05-13T05:22:42.433Z,98960.25
2023-05-13T05:25:10.325Z,98962.72
2023-05-13T05:27:37.267Z,98967.72
2023-05-13T05:30:04.817Z,98964.72
2023-05-13T05:32:32.035Z,98964.06
2023-05-13T05:35:02.331Z,98966.84
2023-05-13T05:37:30.617Z,98978.31
2023-05-13T05:39:58.116Z,98982.31
2023-05-13T05:42:25.104Z,98962.13
2023-05-13T05:44:52.082Z,98960.69
2023-05-13T05:47:19.016Z,98970.78
2023-05-13T05:49:46.601Z,98971.25
2023-05-13T05:52:13.628Z,98974.41
2023-05-13T05:54:40.601Z,98983.84
2023-05-13T05:57:07.522Z,98971.78
2023-05-13T05:59:34.449Z,98927.38
2023-05-13T06:02:01.716Z,98945.28
2023-05-13T06:04:28.748Z,98974.38
2023-05-13T06:06:55.728Z,98970.63
2023-05-13T06:09:22.797Z,98970.78
2023-05-13T06:11:49.767Z,98976.16
2023-05-13T06:14:17.925Z,98970.91
2023-05-13T06:16:44.845Z,98958.97
2023-05-13T06:19:11.889Z,98971.50
2023-05-13T06:21:38.844Z,98977.38
2023-05-13T06:24:05.949Z,98971.75
2023-05-13T06:26:32.879Z,98973.16
2023-05-13T06:28:59.826Z,98978.06
2023-05-13T06:31:27.063Z,98974.22
2023-05-13T06:33:53.994Z,98973.22
2023-05-13T06:36:20.896Z,98965.97
2023-05-13T06:38:47.810Z,98966.03
2023-05-13T06:41:15.585Z,98966.88
2023-05-13T06:43:45.806Z,98959.97
2023-05-13T06:46:13.127Z,98963.69
2023-05-13T06:48:40.135Z,98957.44
2023-05-13T06:51:07.413Z,98954.34
2023-05-13T06:53:34.288Z,98946.75
2023-05-13T06:56:01.203Z,98959.13
2023-05-13T06:58:28.186Z,98951.31
2023-05-13T07:00:55.178Z,98956.81
2023-05-13T07:03:22.139Z,98965.97
2023-05-13T07:05:49.185Z,98951.84
2023-05-13T07:08:18.195Z,98930.16
2023-05-13T07:10:45.386Z,98951.22
2023-05-13T07:13:12.823Z,98952.41
2023-05-13T07:15:39.748Z,98954.63
2023-05-13T07:18:06.865Z,98948.81
2023-05-13T07:20:33.864Z,98948.63
2023-05-13T07:23:00.770Z,98945.50
2023-05-13T07:25:27.789Z,98952.81
2023-05-13T07:27:54.782Z,98937.19
2023-05-13T07:30:21.974Z,98938.53
2023-05-13T07:32:49.155Z,98953.63
2023-05-13T07:35:17.426Z,98941.03
2023-05-13T07:37:44.987Z,98945.47
2023-05-13T07:40:13.474Z,98955.72
2023-05-13T07:42:41.084Z,98949.34
2023-05-13T07:45:09.113Z,98958.13
2023-05-13T07:47:36.141Z,98947.94
2023-05-13T07:50:03.193Z,98942.28
2023-05-13T07:52:30.149Z,98954.94
2023-05-13T07:54:57.115Z,98937.97
2023-05-13T07:57:24.329Z,98948.63
2023-05-13T07:59:51.299Z,98948.06
2023-05-13T08:02:18.220Z,98948.66
2023-05-13T08:04:45.225Z,98942.69
2023-05-13T08:07:12.304Z,98935.16
2023-05-13T08:09:40.018Z,98953.03
2023-05-13T08:12:07.242Z,98951.94
2023-05-13T08:14:34.231Z,98943.28
2023-05-13T08:17:01.312Z,98950.75
2023-05-13T08:19:28.316Z,98945.19
2023-05-13T08:21:55.970Z,98948.63
2023-05-13T08:24:22.907Z,98944.31
2023-05-13T08:26:50.002Z,98956.81
2023-05-13T08:29:16.898Z,98945.22
2023-05-13T08:31:43.955Z,98955.25
2023-05-13T08:34:11.262Z,98955.88
2023-05-13T08:36:38.216Z,98949.00
2023-05-13T08:39:05.541Z,98951.63
2023-05-13T08:41:34.205Z,98958.41
2023-05-13T08:44:07.770Z,98955.31
2023-05-13T08:46:38.189Z,98957.59
2023-05-13T08:49:05.710Z,98961.50
2023-05-13T08:51:32.675Z,98956.91
2023-05-13T08:54:01.459Z,98915.66
2023-05-13T08:56:30.037Z,98939.31
2023-05-13T08:58:57.082Z,98950.22
2023-05-13T09:01:27.028Z,98949.31
2023-05-13T09:04:04.644Z,98948.91
2023-05-13T09:06:31.565Z,98944.91
2023-05-13T09:08:59.201Z,98928.31
2023-05-13T09:11:26.605Z,98913.03
2023-05-13T09:14:00.913Z,98946.78
2023-05-13T09:16:32.939Z,98943.88
2023-05-13T09:19:03.426Z,98933.53
2023-05-13T09:21:32.647Z,98936.78
2023-05-13T09:24:08.821Z,98937.09
2023-05-13T09:26:38.646Z,98940.44
2023-05-13T09:29:31.108Z,98931.50
2023-05-13T09:32:00.481Z,98930.56
2023-05-13T09:34:31.390Z,98921.00
2023-05-13T09:37:08.581Z,98930.66
2023-05-13T09:39:40.293Z,98922.88
2023-05-13T09:42:18.302Z,98928.41
2023-05-13T09:44:46.506Z,98927.63
2023-05-13T09:47:18.171Z,98937.06
2023-05-13T09:49:47.425Z,98900.84
2023-05-13T09:52:17.423Z,98945.22
2023-05-13T09:54:45.334Z,98944.03
2023-05-13T09:57:14.174Z,98937.84
2023-05-13T09:59:42.053Z,98931.72
2023-05-13T10:02:09.056Z,98931.34
2023-05-13T10:04:36.100Z,98923.88
2023-05-13T10:07:04.680Z,98930.00
2023-05-13T10:09:36.523Z,98924.81
2023-05-13T10:12:04.449Z,98925.84
2023-05-13T10:14:31.879Z,98909.19
2023-05-13T10:16:59.649Z,98918.03
2023-05-13T10:19:27.287Z,98907.31
2023-05-13T10:21:54.753Z,98924.56
2023-05-13T10:24:22.982Z,98931.78
2023-05-13T10:26:52.965Z,98919.59
2023-05-13T10:29:20.174Z,98919.91
2023-05-13T10:31:48.285Z,98931.94
2023-05-13T10:34:15.319Z,98919.59
2023-05-13T10:37:02.090Z,98925.22
2023-05-13T10:39:40.920Z,98930.47
2023-05-13T10:42:33.865Z,98922.72
2023-05-13T10:45:01.801Z,98899.84
2023-05-13T10:47:32.773Z,98931.56
2023-05-13T10:50:07.305Z,98901.81
2023-05-13T10:52:48.041Z,98936.19
2023-05-13T10:55:17.546Z,98946.84
2023-05-13T10:58:12.282Z,98949.09
2023-05-13T11:00:43.802Z,98942.00
2023-05-13T11:03:19.985Z,98948.66
2023-05-13T11:06:00.542Z,98942.59
2023-05-13T11:08:39.010Z,98916.53
2023-05-13T11:11:29.964Z,98943.94
2023-05-13T11:14:12.744Z,98934.03
2023-05-13T11:16:39.916Z,98937.94
2023-05-13T11:19:18.529Z,98945.56
2023-05-13T11:21:51.110Z,98918.56
2023-05-13T11:24:19.584Z,98892.00
2023-05-13T11:26:51.910Z,98951.31
2023-05-13T11:29:52.285Z,98925.19
2023-05-13T11:32:58.555Z,98947.59
2023-05-13T11:35:27.066Z,98953.13
2023-05-13T11:37:56.994Z,98944.69
2023-05-13T11:40:30.776Z,98938.47
2023-05-13T11:42:59.130Z,98939.25
2023-05-13T11:45:27.958Z,98951.00
2023-05-13T11:47:55.447Z,98941.00
2023-05-13T11:50:24.429Z,98955.50
2023-05-13T11:52:55.606Z,98940.84
2023-05-13T11:55:27.395Z,98950.03
2023-05-13T11:57:54.649Z,98951.06
2023-05-13T12:00:32.419Z,98943.56
2023-05-13T12:03:00.944Z,98946.38
2023-05-13T12:05:28.199Z,98941.50
2023-05-13T12:07:58.766Z,98943.13
2023-05-13T12:10:26.625Z,98928.13
2023-05-13T12:12:54.219Z,98936.19
2023-05-13T12:15:22.407Z,98933.75
2023-05-13T12:17:50.467Z,98929.63
2023-05-13T12:20:19.923Z,98920.91
2023-05-13T12:22:47.053Z,98924.47
2023-05-13T12:25:33.107Z,98928.78
2023-05-13T12:28:00.597Z,98920.72
2023-05-13T12:30:34.647Z,98916.59
2023-05-13T12:33:01.929Z,98916.72
2023-05-13T12:35:28.873Z,98896.44
2023-05-13T12:38:06.639Z,98917.13
2023-05-13T12:40:33.598Z,98909.09
2023-05-13T12:43:02.117Z,98903.16
2023-05-13T12:45:30.800Z,98891.19
2023-05-13T12:47:58.729Z,98907.41
2023-05-13T12:50:26.594Z,98846.44
2023-05-13T12:52:58.047Z,98842.38
2023-05-13T12:55:29.657Z,98904.69
2023-05-13T12:57:56.751Z,98907.53
2023-05-13T13:00:24.725Z,98898.03
2023-05-13T13:02:53.909Z,98897.19
2023-05-13T13:05:24.359Z,98894.22
2023-05-13T13:07:54.916Z,98888.59
2023-05-13T13:10:22.177Z,98908.41
2023-05-13T13:12:49.806Z,98856.94
2023-05-13T13:15:17.079Z,98908.63
2023-05-13T13:17:45.193Z,98912.38
2023-05-13T13:20:12.800Z,98903.28
2023-05-13T13:22:39.789Z,98903.44
2023-05-13T13:25:07.697Z,98916.72
2023-05-13T13:27:35.282Z,98910.75
2023-05-13T13:30:02.763Z,98908.03
2023-05-13T13:32:29.758Z,98904.47
2023-05-13T13:34:58.422Z,98909.41
2023-05-13T13:37:25.402Z,98897.00
2023-05-13T13:39:52.331Z,98895.81
2023-05-13T13:42:19.286Z,98886.59
2023-05-13T13:44:46.221Z,98891.00
2023-05-13T13:47:13.127Z,98867.06
2023-05-13T13:49:40.487Z,98894.81
2023-05-13T13:52:08.686Z,98899.28
2023-05-13T13:54:35.613Z,98898.16
2023-05-13T13:57:02.920Z,98886.97
2023-05-13T13:59:29.902Z,98911.16
2023-05-13T14:01:57.235Z,98900.19
2023-05-13T14:04:27.699Z,98912.03
2023-05-13T14:06:57.985Z,98900.97
2023-05-13T14:09:25.464Z,98871.34
2023-05-13T14:11:52.438Z,98875.44
2023-05-13T14:14:19.360Z,98909.59
2023-05-13T14:16:46.515Z,98908.84
2023-05-13T14:19:13.580Z,98913.03
2023-05-13T14:21:40.608Z,98846.47
2023-05-13T14:24:08.798Z,98906.13
2023-05-13T14:26:35.852Z,98918.09
2023-05-13T14:29:02.850Z,98908.56
2023-05-13T14:31:31.774Z,98910.38
2023-05-13T14:33:58.848Z,98911.94
2023-05-13T14:36:27.002Z,98909.44
2023-05-13T14:38:54.644Z,98914.34
2023-05-13T14:41:22.961Z,98910.66
2023-05-13T14:43:50.006Z,98886.34
2023-05-13T14:46:17.372Z,98907.59
2023-05-13T14:48:44.334Z,98910.91
2023-05-13T14:51:12.591Z,98907.19
2023-05-13T14:53:43.193Z,98915.97
2023-05-13T14:56:10.342Z,98917.41
2023-05-13T14:58:37.219Z,98916.69
2023-05-13T15:01:04.371Z,98911.06
2023-05-13T15:03:31.333Z,98920.34
2023-05-13T15:05:58.498Z,98912.34
2023-05-13T15:08:25.778Z,98920.91
2023-05-13T15:10:52.724Z,98919.91
2023-05-13T15:13:20.032Z,98929.47
2023-05-13T15:15:47.133Z,98923.78
2023-05-13T15:18:14.433Z,98917.03
2023-05-13T15:20:41.622Z,98918.31
2023-05-13T15:23:08.859Z,98922.84
2023-05-13T15:25:36.584Z,98874.91
2023-05-13T15:28:03.854Z,98890.72
2023-05-13T15:30:30.845Z,98929.59
2023-05-13T15:32:57.943Z,98917.47
2023-05-13T15:35:24.918Z,98917.59
2023-05-13T15:37:51.868Z,98925.91
2023-05-13T15:40:18.803Z,98922.13
2023-05-13T15:42:45.789Z,98917.22
2023-05-13T15:45:12.713Z,98914.03
2023-05-13T15:47:39.766Z,98908.50
2023-05-13T15:50:07.275Z,98919.63
2023-05-13T15:52:34.226Z,98890.47
2023-05-13T15:55:01.248Z,98924.06
2023-05-13T15:57:28.176Z,98919.47
2023-05-13T15:59:55.124Z,98853.53
2023-05-13T16:02:22.016Z,98902.97
2023-05-13T16:04:50.228Z,98925.16
2023-05-13T16:07:17.148Z,98911.38
2023-05-13T16:09:44.106Z,98911.28
2023-05-13T16:12:11.048Z,98911.28
2023-05-13T16:14:38.682Z,98915.56
2023-05-13T16:17:05.864Z,98914.94
2023-05-13T16:19:32.880Z,98915.50
2023-05-13T16:21:59.773Z,98915.22
2023-05-13T16:24:26.765Z,98907.91
2023-05-13T16:26:53.756Z,98905.72
2023-05-13T16:29:20.688Z,98908.16
2023-05-13T16:31:47.666Z,98913.03
2023-05-13T16:34:14.997Z,98903.88
2023-05-13T16:36:43.433Z,98904.56
2023-05-13T16:39:10.365Z,98905.56
2023-05-13T16:41:37.323Z,98886.25
2023-05-13T16:44:04.412Z,98876.06
2023-05-13T16:46:35.614Z,98889.66
2023-05-13T16:49:02.721Z,98890.97
2023-05-13T16:51:29.816Z,98894.81
2023-05-13T16:53:56.750Z,98891.00
2023-05-13T16:56:23.705Z,98884.84
2023-05-13T16:58:50.641Z,98892.94
2023-05-13T17:01:17.577Z,98886.00
2023-05-13T17:03:44.644Z,98880.91
2023-05-13T17:06:11.661Z,98889.94
2023-05-13T17:08:38.605Z,98887.19
2023-05-13T17:11:05.744Z,98883.31
2023-05-13T17:13:32.691Z,98882.97
2023-05-13T17:15:59.614Z,98881.16
2023-05-13T17:18:26.808Z,98892.22
2023-05-13T17:20:55.185Z,98879.47
2023-05-13T17:23:22.095Z,98891.50
2023-05-13T17:25:49.048Z,98888.16
2023-05-13T17:31:57.092Z,98894.00
2023-05-13T17:34:24.041Z,98888.03
2023-05-13T17:36:50.956Z,98882.84
2023-05-13T17:39:17.930Z,98891.59
2023-05-13T17:41:44.853Z,98900.28
2023-05-13T17:44:13.275Z,98881.72
2023-05-13T17:46:40.221Z,98894.59
2023-05-13T17:49:08.557Z,98874.63
2023-05-13T17:51:35.767Z,98893.25
2023-05-13T17:54:02.761Z,98898.78
2023-05-13T17:56:29.706Z,98894.22
2023-05-13T17:58:57.553Z,98900.34
2023-05-13T18:01:24.466Z,98906.47
2023-05-13T18:03:51.599Z,98907.97
2023-05-13T18:06:18.562Z,98913.25
2023-05-13T18:08:45.512Z,98859.03
2023-05-13T18:11:12.428Z,98902.91
2023-05-13T18:13:39.411Z,98909.03
2023-05-13T18:16:07.734Z,98896.78
2023-05-13T18:18:34.729Z,98912.72
2023-05-13T18:21:02.096Z,98911.53
2023-05-13T18:23:29.057Z,98886.22
2023-05-13T18:25:56.563Z,98912.13
2023-05-13T18:28:23.813Z,98914.66
2023-05-13T18:30:50.866Z,98922.25
2023-05-13T18:33:20.669Z,98868.03
2023-05-13T18:35:47.810Z,98919.44
2023-05-13T18:38:14.689Z,98921.34
2023-05-13T18:40:41.641Z,98928.66
2023-05-13T18:43:08.573Z,98930.59
2023-05-13T18:45:35.575Z,98869.84
2023-05-13T18:48:02.657Z,98936.47
2023-05-13T18:50:29.691Z,98937.72
2023-05-13T18:52:56.669Z,98941.28
2023-05-13T18:55:23.601Z,98938.97
2023-05-13T18:57:51.016Z,98948.78
2023-05-13T19:00:18.726Z,98935.63
2023-05-13T19:02:45.774Z,98950.22
